createdAt,value
2018-06-11T00:02:04.305Z,78.51
2018-06-11T00:04:32.456Z,78.04
2018-06-11T00:07:00.616Z,78.66
2018-06-11T00:09:28.781Z,78.27
2018-06-11T00:11:56.955Z,78.97
2018-06-11T00:14:25.115Z,78.77
2018-06-11T00:16:53.260Z,78.46
2018-06-11T00:19:21.421Z,78.47
2018-06-11T00:21:49.566Z,78.70
2018-06-11T00:24:17.719Z,77.25
2018-06-11T00:26:45.884Z,77.68
2018-06-11T00:29:14.028Z,77.15
2018-06-11T00:31:42.203Z,78.33
2018-06-11T00:34:10.384Z,77.11
2018-06-11T00:36:38.530Z,77.77
2018-06-11T00:39:08.248Z,78.18
2018-06-11T00:41:36.404Z,77.78
2018-06-11T00:44:04.615Z,77.53
2018-06-11T00:46:32.766Z,77.72
2018-06-11T00:49:00.953Z,77.73
2018-06-11T00:51:29.120Z,78.58
2018-06-11T00:53:57.281Z,79.45
2018-06-11T00:56:25.443Z,78.46
2018-06-11T00:58:53.606Z,79.31
2018-06-11T01:01:21.782Z,79.46
2018-06-11T01:03:49.924Z,78.64
2018-06-11T01:06:18.080Z,78.88
2018-06-11T01:08:46.240Z,78.45
2018-06-11T01:11:14.399Z,79.10
2018-06-11T01:13:42.576Z,78.54
2018-06-11T01:16:10.706Z,79.81
2018-06-11T01:18:38.855Z,78.69
2018-06-11T01:21:07.008Z,78.72
2018-06-11T01:23:35.167Z,78.71
2018-06-11T01:26:03.335Z,78.74
2018-06-11T01:28:31.504Z,78.94
2018-06-11T01:30:59.671Z,78.35
2018-06-11T01:33:27.856Z,78.91
2018-06-11T01:35:56.012Z,78.53
2018-06-11T01:38:24.151Z,78.82
2018-06-11T01:40:52.331Z,78.77
2018-06-11T01:43:20.486Z,79.43
2018-06-11T01:45:48.655Z,79.43
2018-06-11T01:48:16.810Z,79.43
2018-06-11T01:50:45.039Z,79.38
2018-06-11T01:53:13.290Z,79.59
2018-06-11T01:55:41.439Z,79.67
2018-06-11T01:58:09.611Z,79.65
2018-06-11T02:03:05.004Z,79.15
2018-06-11T02:05:33.224Z,79.80
2018-06-11T02:08:01.376Z,78.94
2018-06-11T02:10:29.534Z,80.09
2018-06-11T02:12:57.682Z,79.71
2018-06-11T02:15:25.842Z,79.79
2018-06-11T02:17:54.055Z,79.98
2018-06-11T02:20:22.218Z,79.32
2018-06-11T02:22:50.386Z,79.82
2018-06-11T02:25:18.563Z,79.43
2018-06-11T02:27:46.808Z,79.83
2018-06-11T02:30:15.026Z,80.16
2018-06-11T02:32:43.259Z,79.68
2018-06-11T02:35:11.443Z,80.72
2018-06-11T02:37:39.655Z,80.68
2018-06-11T02:40:07.856Z,80.24
2018-06-11T02:42:36.080Z,81.20
2018-06-11T02:45:04.442Z,81.17
2018-06-11T02:47:32.652Z,81.17
2018-06-11T02:50:00.813Z,81.70
2018-06-11T02:52:29.023Z,81.68
2018-06-11T02:54:57.191Z,81.86
2018-06-11T02:57:25.377Z,82.37
2018-06-11T02:59:53.514Z,81.39
2018-06-11T03:02:21.680Z,81.33
2018-06-11T03:04:49.836Z,81.79
2018-06-11T03:07:17.992Z,81.46
2018-06-11T03:09:46.138Z,81.81
2018-06-11T03:12:14.301Z,81.95
2018-06-11T03:14:42.464Z,82.79
2018-06-11T03:17:10.639Z,82.14
2018-06-11T03:19:38.851Z,82.16
2018-06-11T03:22:07.012Z,82.78
2018-06-11T03:24:35.193Z,83.12
2018-06-11T03:27:03.352Z,83.30
2018-06-11T03:29:31.534Z,83.22
2018-06-11T03:31:59.711Z,82.90
2018-06-11T03:34:27.923Z,82.43
2018-06-11T03:36:56.070Z,83.23
2018-06-11T03:39:24.227Z,83.17
2018-06-11T03:41:52.407Z,83.71
2018-06-11T03:44:20.626Z,82.60
2018-06-11T03:46:48.809Z,82.69
2018-06-11T03:49:17.003Z,83.60
2018-06-11T03:51:45.168Z,83.26
2018-06-11T03:54:13.382Z,83.73
2018-06-11T03:56:41.555Z,83.56
2018-06-11T03:59:09.732Z,82.64
2018-06-11T04:01:37.892Z,83.52
2018-06-11T04:04:06.084Z,83.33
2018-06-11T04:06:34.290Z,83.53
2018-06-11T04:09:02.487Z,82.68
2018-06-11T04:11:30.707Z,83.39
2018-06-11T04:13:58.874Z,82.58
2018-06-11T04:16:27.043Z,82.73
2018-06-11T04:18:55.257Z,83.03
2018-06-11T04:21:23.420Z,82.13
2018-06-11T04:23:51.594Z,82.31
2018-06-11T04:26:19.755Z,82.27
2018-06-11T04:28:47.940Z,82.01
2018-06-11T04:31:16.194Z,82.55
2018-06-11T04:33:52.422Z,81.77
2018-06-11T04:36:21.997Z,81.90
2018-06-11T04:38:50.261Z,82.17
2018-06-11T04:41:18.392Z,81.96
2018-06-11T04:43:46.544Z,82.39
2018-06-11T04:46:14.712Z,82.53
2018-06-11T04:48:42.865Z,81.69
2018-06-11T04:51:11.033Z,82.08
2018-06-11T04:53:39.180Z,81.04
2018-06-11T04:56:07.343Z,80.79
2018-06-11T04:58:35.481Z,79.95
2018-06-11T05:01:03.706Z,80.45
2018-06-11T05:03:31.863Z,81.07
2018-06-11T05:06:00.068Z,80.63
2018-06-11T05:08:28.230Z,79.99
2018-06-11T05:10:56.415Z,80.83
2018-06-11T05:13:24.598Z,79.78
2018-06-11T05:15:52.782Z,79.38
2018-06-11T05:18:20.968Z,79.55
2018-06-11T05:20:49.132Z,79.70
2018-06-11T05:23:17.301Z,78.81
2018-06-11T05:25:45.476Z,79.39
2018-06-11T05:28:13.645Z,78.83
2018-06-11T05:30:41.839Z,79.22
2018-06-11T05:33:10.003Z,78.59
2018-06-11T05:35:38.238Z,77.90
2018-06-11T05:38:06.469Z,78.88
2018-06-11T05:40:34.613Z,78.73
2018-06-11T05:43:02.807Z,78.42
2018-06-11T05:45:30.964Z,78.06
2018-06-11T05:47:59.170Z,77.98
2018-06-11T05:50:27.276Z,77.73
2018-06-11T05:52:55.423Z,76.67
2018-06-11T05:55:23.601Z,77.19
2018-06-11T05:57:51.769Z,77.60
2018-06-11T06:00:19.927Z,76.42
2018-06-11T06:02:48.105Z,76.28
2018-06-11T06:05:16.264Z,76.04
2018-06-11T06:07:44.494Z,75.86
2018-06-11T06:10:12.789Z,75.55
2018-06-11T06:12:40.951Z,74.97
2018-06-11T06:15:09.109Z,75.05
2018-06-11T06:17:37.304Z,74.62
2018-06-11T06:20:06.350Z,74.72
2018-06-11T06:22:34.503Z,74.83
2018-06-11T06:25:02.719Z,75.18
2018-06-11T06:27:36.403Z,73.84
2018-06-11T06:30:04.647Z,74.38
2018-06-11T06:32:32.811Z,74.63
2018-06-11T06:35:00.984Z,73.65
2018-06-11T06:37:29.169Z,73.37
2018-06-11T06:39:57.380Z,73.86
2018-06-11T06:42:25.547Z,73.12
2018-06-11T06:44:53.697Z,73.62
2018-06-11T06:47:21.871Z,73.04
2018-06-11T06:49:50.019Z,73.45
2018-06-11T06:52:18.192Z,72.43
2018-06-11T06:54:46.347Z,73.04
2018-06-11T06:57:14.519Z,72.64
2018-06-11T06:59:42.690Z,71.54
2018-06-11T07:02:10.874Z,72.11
2018-06-11T07:04:39.252Z,73.42
2018-06-11T07:07:07.476Z,71.85
2018-06-11T07:09:35.707Z,71.26
2018-06-11T07:12:03.951Z,70.01
2018-06-11T07:14:32.236Z,69.65
2018-06-11T07:17:00.483Z,70.18
2018-06-11T07:19:28.708Z,70.64
2018-06-11T07:21:56.892Z,70.74
2018-06-11T07:24:25.067Z,70.59
2018-06-11T07:26:53.220Z,70.53
2018-06-11T07:29:21.398Z,69.91
2018-06-11T07:31:49.578Z,71.02
2018-06-11T07:34:17.743Z,70.33
2018-06-11T07:36:45.912Z,68.82
2018-06-11T07:39:14.097Z,68.65
2018-06-11T07:41:42.273Z,69.20
2018-06-11T07:44:10.487Z,69.08
2018-06-11T07:46:38.676Z,68.61
2018-06-11T07:49:06.840Z,67.33
2018-06-11T07:51:34.995Z,68.16
2018-06-11T07:54:03.216Z,68.37
2018-06-11T07:56:31.411Z,68.40
2018-06-11T07:58:59.635Z,68.15
2018-06-11T08:01:27.829Z,67.85
2018-06-11T08:03:55.935Z,67.58
2018-06-11T08:06:24.108Z,68.35
2018-06-11T08:08:52.267Z,67.72
2018-06-11T08:11:20.448Z,67.43
2018-06-11T08:13:48.628Z,67.81
2018-06-11T08:16:16.779Z,66.25
2018-06-11T08:18:44.976Z,65.54
2018-06-11T08:21:13.186Z,65.66
2018-06-11T08:23:41.359Z,65.95
2018-06-11T08:26:09.530Z,65.01
2018-06-11T08:28:37.695Z,65.64
2018-06-11T08:31:06.020Z,65.67
2018-06-11T08:33:34.175Z,65.44
2018-06-11T08:36:02.331Z,65.83
2018-06-11T08:38:30.500Z,65.65
2018-06-11T08:40:58.648Z,64.65
2018-06-11T08:43:26.811Z,64.90
2018-06-11T08:45:54.969Z,64.82
2018-06-11T08:48:23.177Z,64.76
2018-06-11T08:50:51.366Z,65.18
2018-06-11T08:53:19.522Z,64.70
2018-06-11T08:55:47.679Z,65.16
2018-06-11T08:58:15.836Z,64.24
2018-06-11T09:00:44.011Z,64.27
2018-06-11T09:03:12.170Z,63.42
2018-06-11T09:05:40.331Z,64.03
2018-06-11T09:08:08.494Z,63.76
2018-06-11T09:10:36.708Z,63.68
2018-06-11T09:13:04.860Z,63.68
2018-06-11T09:15:33.033Z,64.42
2018-06-11T09:18:01.256Z,64.13
2018-06-11T09:20:29.322Z,63.99
2018-06-11T09:22:57.470Z,63.42
2018-06-11T09:25:25.652Z,62.58
2018-06-11T09:27:53.820Z,62.62
2018-06-11T09:30:21.978Z,63.32
2018-06-11T09:32:50.144Z,63.75
2018-06-11T09:35:18.315Z,63.08
2018-06-11T09:37:46.476Z,62.68
2018-06-11T09:40:14.646Z,62.46
2018-06-11T09:42:42.792Z,62.77
2018-06-11T09:45:10.951Z,63.44
2018-06-11T09:47:39.108Z,63.55
2018-06-11T09:50:07.322Z,63.55
2018-06-11T09:52:35.491Z,63.50
2018-06-11T09:55:03.672Z,63.76
2018-06-11T09:57:31.836Z,63.84
2018-06-11T09:59:59.982Z,63.76
2018-06-11T10:02:28.195Z,63.67
2018-06-11T10:04:56.356Z,64.22
2018-06-11T10:07:24.527Z,64.33
2018-06-11T10:09:52.699Z,64.22
2018-06-11T10:12:20.912Z,63.73
2018-06-11T10:14:48.995Z,64.55
2018-06-11T10:17:17.161Z,64.54
2018-06-11T10:19:45.344Z,64.50
2018-06-11T10:22:13.496Z,64.08
2018-06-11T10:24:41.650Z,63.62
2018-06-11T10:27:09.820Z,63.33
2018-06-11T10:29:37.990Z,63.47
2018-06-11T10:32:06.175Z,62.38
2018-06-11T10:34:34.314Z,62.54
2018-06-11T10:37:02.485Z,62.66
2018-06-11T10:39:30.655Z,62.38
2018-06-11T10:41:58.803Z,62.55
2018-06-11T10:44:26.947Z,62.68
2018-06-11T10:46:55.100Z,62.76
2018-06-11T10:49:23.226Z,62.54
2018-06-11T10:51:51.402Z,62.21
2018-06-11T10:54:19.566Z,62.36
2018-06-11T10:56:47.736Z,61.86
2018-06-11T10:59:15.895Z,61.78
2018-06-11T11:01:44.076Z,62.27
2018-06-11T11:04:12.240Z,61.54
2018-06-11T11:06:40.406Z,61.11
2018-06-11T11:09:08.576Z,60.73
2018-06-11T11:11:36.763Z,61.72
2018-06-11T11:14:04.920Z,61.77
2018-06-11T11:16:33.102Z,61.65
2018-06-11T11:19:01.240Z,61.23
2018-06-11T11:21:29.403Z,60.74
2018-06-11T11:23:57.580Z,59.49
2018-06-11T11:26:25.782Z,60.86
2018-06-11T11:28:53.938Z,61.44
2018-06-11T11:31:22.085Z,61.03
2018-06-11T11:33:50.273Z,61.18
2018-06-11T11:36:18.428Z,61.03
2018-06-11T11:38:46.575Z,60.88
2018-06-11T11:41:14.727Z,60.31
2018-06-11T11:43:42.884Z,59.39
2018-06-11T11:46:11.051Z,59.26
2018-06-11T11:48:39.211Z,59.26
2018-06-11T11:51:07.383Z,58.93
2018-06-11T11:53:35.531Z,59.59
2018-06-11T11:56:03.687Z,59.76
2018-06-11T11:58:31.858Z,59.37
2018-06-11T12:01:00.073Z,60.52
2018-06-11T12:03:28.245Z,61.14
2018-06-11T12:05:56.416Z,60.82
2018-06-11T12:08:24.569Z,61.09
2018-06-11T12:10:52.737Z,61.32
2018-06-11T12:13:20.881Z,61.41
2018-06-11T12:15:49.037Z,60.76
2018-06-11T12:18:17.192Z,61.13
2018-06-11T12:20:45.337Z,60.45
2018-06-11T12:23:13.495Z,60.41
2018-06-11T12:25:41.650Z,60.53
2018-06-11T12:30:44.193Z,60.70
2018-06-11T12:33:12.352Z,59.89
2018-06-11T12:35:40.536Z,59.89
2018-06-11T12:38:15.252Z,59.14
2018-06-11T12:40:43.400Z,59.19
2018-06-11T12:43:11.587Z,59.62
2018-06-11T12:45:39.755Z,60.23
2018-06-11T12:48:07.951Z,60.44
2018-06-11T12:50:36.115Z,60.61
2018-06-11T12:53:04.310Z,60.52
2018-06-11T12:55:32.569Z,60.99
2018-06-11T12:58:00.727Z,61.12
2018-06-11T13:00:28.895Z,60.85
2018-06-11T13:02:57.108Z,60.74
2018-06-11T13:05:25.277Z,61.49
2018-06-11T13:07:53.428Z,61.97
2018-06-11T13:10:21.622Z,61.61
2018-06-11T13:12:49.795Z,61.00
2018-06-11T13:15:17.975Z,61.33
2018-06-11T13:17:46.952Z,61.74
2018-06-11T13:20:15.122Z,61.71
2018-06-11T13:22:43.281Z,62.43
2018-06-11T13:25:11.428Z,62.77
2018-06-11T13:27:39.599Z,63.09
2018-06-11T13:30:07.758Z,63.11
2018-06-11T13:32:36.031Z,63.01
2018-06-11T13:35:04.201Z,63.97
2018-06-11T13:37:32.360Z,63.74
2018-06-11T13:40:00.516Z,64.18
2018-06-11T13:42:28.684Z,64.15
2018-06-11T13:44:56.844Z,64.49
2018-06-11T13:47:24.995Z,64.96
2018-06-11T13:49:53.138Z,65.32
2018-06-11T13:52:21.304Z,65.68
2018-06-11T13:54:49.453Z,65.64
2018-06-11T13:57:17.601Z,65.58
2018-06-11T13:59:45.775Z,66.21
2018-06-11T14:02:13.920Z,66.33
2018-06-11T14:04:42.087Z,66.72
2018-06-11T14:07:10.247Z,67.04
2018-06-11T14:09:38.415Z,66.91
2018-06-11T14:12:06.586Z,67.33
2018-06-11T14:14:34.768Z,67.03
2018-06-11T14:17:02.988Z,67.19
2018-06-11T14:19:31.124Z,67.46
2018-06-11T14:21:59.311Z,67.77
2018-06-11T14:24:27.529Z,67.94
2018-06-11T14:26:55.678Z,69.08
2018-06-11T14:29:23.827Z,68.82
2018-06-11T14:31:52.079Z,69.52
2018-06-11T14:34:20.239Z,69.81
2018-06-11T14:36:48.420Z,70.44
2018-06-11T14:39:16.707Z,70.32
2018-06-11T14:41:44.855Z,70.73
2018-06-11T14:44:13.023Z,70.54
2018-06-11T14:46:41.181Z,70.48
2018-06-11T14:49:09.348Z,70.50
2018-06-11T14:51:37.513Z,70.98
2018-06-11T14:54:05.685Z,71.34
2018-06-11T14:56:33.896Z,71.39
2018-06-11T14:59:02.061Z,71.68
2018-06-11T15:01:30.218Z,71.44
2018-06-11T15:03:58.379Z,72.00
2018-06-11T15:06:26.536Z,71.42
2018-06-11T15:08:54.812Z,72.41
2018-06-11T15:11:22.999Z,72.55
2018-06-11T15:13:52.133Z,73.67
2018-06-11T15:16:21.114Z,74.78
2018-06-11T15:18:49.553Z,75.74
2018-06-11T15:21:17.860Z,77.81
2018-06-11T15:23:46.978Z,78.82
2018-06-11T15:26:15.260Z,79.29
2018-06-11T15:28:43.627Z,80.85
2018-06-11T15:31:11.908Z,81.58
2018-06-11T15:33:40.378Z,82.13
2018-06-11T15:36:08.660Z,82.67
2018-06-11T15:38:37.212Z,82.93
2018-06-11T15:41:05.479Z,84.19
2018-06-11T15:43:33.812Z,85.02
2018-06-11T15:46:02.207Z,85.52
2018-06-11T15:48:30.627Z,85.94
2018-06-11T15:50:58.911Z,86.37
2018-06-11T15:53:27.617Z,86.37
2018-06-11T15:55:55.957Z,86.77
2018-06-11T15:58:24.224Z,86.69
2018-06-11T16:00:53.602Z,86.26
2018-06-11T16:03:21.942Z,86.84
2018-06-11T16:05:50.239Z,87.31
2018-06-11T16:08:18.607Z,86.90
2018-06-11T16:10:48.600Z,87.97
2018-06-11T16:13:16.935Z,87.81
2018-06-11T16:15:45.494Z,87.42
2018-06-11T16:18:13.798Z,87.31
2018-06-11T16:20:42.208Z,87.67
2018-06-11T16:23:10.493Z,88.06
2018-06-11T16:25:38.797Z,87.97
2018-06-11T16:28:07.972Z,88.12
2018-06-11T16:30:36.620Z,88.54
2018-06-11T16:33:04.880Z,88.91
2018-06-11T16:35:33.395Z,88.64
2018-06-11T16:38:02.188Z,88.83
2018-06-11T16:40:30.586Z,88.93
2018-06-11T16:42:58.935Z,89.66
2018-06-11T16:45:27.210Z,89.17
2018-06-11T16:50:37.919Z,89.84
2018-06-11T16:53:06.459Z,89.90
2018-06-11T16:55:36.267Z,90.24
2018-06-11T16:58:04.682Z,89.82
2018-06-11T17:00:33.150Z,89.46
2018-06-11T17:03:01.753Z,90.50
2018-06-11T17:05:30.050Z,89.75
2018-06-11T17:07:58.511Z,90.80
2018-06-11T17:10:26.786Z,90.26
2018-06-11T17:12:55.706Z,90.27
2018-06-11T17:16:30.420Z,90.46
2018-06-11T17:18:58.579Z,90.37
2018-06-11T17:21:26.751Z,90.83
2018-06-11T17:23:54.926Z,91.21
2018-06-11T17:26:23.085Z,91.41
2018-06-11T17:28:51.235Z,90.91
2018-06-11T17:31:19.382Z,90.50
2018-06-11T17:33:47.571Z,90.74
2018-06-11T17:36:15.737Z,90.97
2018-06-11T17:38:43.916Z,90.67
2018-06-11T17:41:12.119Z,90.89
2018-06-11T17:43:40.344Z,91.21
2018-06-11T17:46:14.907Z,90.97
2018-06-11T17:48:43.078Z,91.87
2018-06-11T17:51:11.264Z,91.75
2018-06-11T17:53:39.412Z,90.80
2018-06-11T17:58:42.068Z,89.96
2018-06-11T18:01:10.199Z,90.05
2018-06-11T18:03:38.345Z,91.11
2018-06-11T18:06:06.522Z,91.02
2018-06-11T18:08:34.658Z,89.85
2018-06-11T18:11:02.811Z,90.79
2018-06-11T18:13:30.965Z,90.26
2018-06-11T18:15:59.723Z,89.84
2018-06-11T18:18:28.299Z,90.10
2018-06-11T18:20:56.887Z,90.63
2018-06-11T18:23:25.188Z,90.43
2018-06-11T18:25:53.500Z,90.97
2018-06-11T18:28:21.911Z,91.03
2018-06-11T18:30:50.159Z,90.53
2018-06-11T18:33:18.972Z,90.31
2018-06-11T18:35:50.007Z,90.21
2018-06-11T18:39:26.879Z,90.61
2018-06-11T18:41:55.145Z,90.30
2018-06-11T18:44:23.396Z,90.55
2018-06-11T18:46:52.740Z,90.24
2018-06-11T18:49:22.533Z,90.03
2018-06-11T18:51:51.996Z,90.05
2018-06-11T18:54:28.270Z,90.00
2018-06-11T18:57:00.513Z,89.87
2018-06-11T18:59:29.388Z,90.35
2018-06-11T19:01:58.590Z,90.84
2018-06-11T19:04:27.246Z,90.37
2018-06-11T19:06:59.749Z,90.89
2018-06-11T19:09:32.805Z,90.54
2018-06-11T19:12:02.536Z,91.12
2018-06-11T19:14:45.189Z,91.45
2018-06-11T19:17:13.585Z,90.86
2018-06-11T19:23:00.042Z,90.95
2018-06-11T19:25:33.093Z,90.93
2018-06-11T19:28:10.172Z,91.63
2018-06-11T19:30:40.213Z,91.35
2018-06-11T19:33:15.221Z,90.14
2018-06-11T19:35:45.453Z,90.57
2018-06-11T19:38:14.314Z,91.02
2018-06-11T19:40:44.144Z,90.83
2018-06-11T19:43:16.045Z,90.51
2018-06-11T19:48:48.505Z,90.15
2018-06-11T19:54:29.719Z,89.86
2018-06-11T19:56:58.952Z,88.97
2018-06-11T19:59:29.278Z,88.87
2018-06-11T20:01:59.899Z,88.68
2018-06-11T20:04:41.530Z,88.37
2018-06-11T20:07:15.357Z,89.19
2018-06-11T20:09:54.451Z,89.35
2018-06-11T20:12:52.813Z,89.18
2018-06-11T20:18:12.150Z,89.77
2018-06-11T20:20:49.135Z,89.13
2018-06-11T20:23:34.483Z,88.96
2018-06-11T20:26:10.510Z,89.72
2018-06-11T20:28:49.566Z,89.43
2018-06-11T20:32:22.346Z,88.63
2018-06-11T20:35:23.818Z,89.23
2018-06-11T20:46:39.175Z,89.70
2018-06-11T20:49:54.010Z,88.93
2018-06-11T20:52:43.353Z,88.60
2018-06-11T21:12:59.771Z,88.87
2018-06-11T21:16:05.117Z,88.01
2018-06-11T21:21:34.595Z,88.82
2018-06-11T21:24:17.745Z,88.63
2018-06-11T21:26:54.399Z,87.69
2018-06-11T21:29:36.688Z,87.57
2018-06-11T21:35:23.803Z,88.22
2018-06-11T21:38:01.561Z,87.83
2018-06-11T21:40:42.880Z,87.39
2018-06-11T21:43:23.447Z,88.22
2018-06-11T21:46:25.427Z,88.07
2018-06-11T21:48:53.636Z,88.15
2018-06-11T21:51:21.835Z,88.16
2018-06-11T21:53:50.090Z,88.69
2018-06-11T21:56:18.431Z,88.43
2018-06-11T21:58:46.779Z,88.25
2018-06-11T22:01:15.049Z,88.47
2018-06-11T22:03:43.288Z,87.78
2018-06-11T22:06:11.383Z,88.33
2018-06-11T22:08:39.575Z,88.41
2018-06-11T22:11:07.751Z,88.04
2018-06-11T22:13:35.911Z,87.98
2018-06-11T22:16:04.061Z,87.59
2018-06-11T22:18:32.207Z,87.85
2018-06-11T22:21:00.367Z,87.34
2018-06-11T22:23:28.504Z,87.55
2018-06-11T22:25:56.674Z,87.10
2018-06-11T22:28:24.811Z,88.21
2018-06-11T22:30:52.964Z,87.25
2018-06-11T22:33:21.147Z,86.68
2018-06-11T22:35:49.300Z,87.91
2018-06-11T22:38:17.429Z,87.51
2018-06-11T22:40:45.588Z,86.55
2018-06-11T22:43:13.743Z,86.21
2018-06-11T22:45:48.562Z,86.38
2018-06-11T22:48:16.695Z,86.79
2018-06-11T22:50:44.858Z,86.89
2018-06-11T22:53:13.001Z,86.68
2018-06-11T22:55:41.156Z,86.12
2018-06-11T22:58:09.319Z,85.54
2018-06-11T23:00:37.463Z,86.42
2018-06-11T23:03:05.607Z,86.28
2018-06-11T23:05:33.750Z,85.87
2018-06-11T23:08:01.899Z,86.28
2018-06-11T23:10:30.055Z,86.07
2018-06-11T23:12:58.196Z,86.51
2018-06-11T23:15:26.341Z,86.14
2018-06-11T23:17:54.488Z,86.10
2018-06-11T23:20:22.664Z,86.23
2018-06-11T23:34:32.474Z,84.97
2018-06-11T23:37:00.817Z,84.76
2018-06-11T23:39:29.047Z,85.76
2018-06-11T23:41:57.279Z,85.14
2018-06-11T23:44:25.462Z,84.51
2018-06-11T23:46:53.627Z,85.46
2018-06-11T23:49:21.779Z,84.48
2018-06-11T23:51:49.939Z,84.44
2018-06-11T23:54:18.096Z,83.60
2018-06-11T23:56:46.268Z,83.33
2018-06-11T23:59:14.425Z,83.86
